sensor_id;sensor_type;location;lat;lon;timestamp;pressure;altitude;pressure_sealevel;temperature;humidity
43741;BME280;29352;48.708;9.290;2023-04-30T00:00:41;98113.31;;;3.47;81.21
43741;BME280;29352;48.708;9.290;2023-04-30T00:03:07;98113.13;;;3.73;80.20
43741;BME280;29352;48.708;9.290;2023-04-30T00:05:32;98120.25;;;3.65;80.42
43741;BME280;29352;48.708;9.290;2023-04-30T00:07:58;98126.00;;;3.52;81.05
43741;BME280;29352;48.708;9.290;2023-04-30T00:10:23;98125.16;;;3.84;79.74
43741;BME280;29352;48.708;9.290;2023-04-30T00:12:48;98132.59;;;3.72;80.70
43741;BME280;29352;48.708;9.290;2023-04-30T00:15:14;98126.31;;;3.57;81.63
43741;BME280;29352;48.708;9.290;2023-04-30T00:17:40;98129.16;;;3.47;81.94
43741;BME280;29352;48.708;9.290;2023-04-30T00:20:05;98127.81;;;3.43;82.36
43741;BME280;29352;48.708;9.290;2023-04-30T00:22:32;98125.53;;;3.48;82.21
43741;BME280;29352;48.708;9.290;2023-04-30T00:24:57;98119.09;;;3.51;82.72
43741;BME280;29352;48.708;9.290;2023-04-30T00:27:23;98117.75;;;3.47;83.50
43741;BME280;29352;48.708;9.290;2023-04-30T00:29:48;98120.72;;;3.52;83.29
43741;BME280;29352;48.708;9.290;2023-04-30T00:32:14;98114.16;;;3.48;83.71
43741;BME280;29352;48.708;9.290;2023-04-30T00:34:39;98117.75;;;3.47;84.05
43741;BME280;29352;48.708;9.290;2023-04-30T00:37:05;98114.63;;;3.51;83.52
43741;BME280;29352;48.708;9.290;2023-04-30T00:39:30;98118.59;;;3.55;83.72
43741;BME280;29352;48.708;9.290;2023-04-30T00:41:56;98120.06;;;3.42;84.19
43741;BME280;29352;48.708;9.290;2023-04-30T00:44:21;98120.41;;;3.39;82.71
43741;BME280;29352;48.708;9.290;2023-04-30T00:46:46;98124.22;;;3.44;83.07
43741;BME280;29352;48.708;9.290;2023-04-30T00:49:12;98120.06;;;3.25;83.80
43741;BME280;29352;48.708;9.290;2023-04-30T00:51:39;98125.34;;;3.42;82.98
43741;BME280;29352;48.708;9.290;2023-04-30T00:54:07;98129.63;;;3.26;83.75
43741;BME280;29352;48.708;9.290;2023-04-30T00:56:33;98132.56;;;3.15;84.19
43741;BME280;29352;48.708;9.290;2023-04-30T00:58:59;98128.59;;;3.19;83.91
43741;BME280;29352;48.708;9.290;2023-04-30T01:01:26;98127.09;;;3.00;85.95
43741;BME280;29352;48.708;9.290;2023-04-30T01:03:55;98124.59;;;2.91;85.68
43741;BME280;29352;48.708;9.290;2023-04-30T01:06:21;98125.59;;;2.90;85.85
43741;BME280;29352;48.708;9.290;2023-04-30T01:08:49;98134.69;;;3.03;85.62
43741;BME280;29352;48.708;9.290;2023-04-30T01:14:09;98130.69;;;2.75;84.92
43741;BME280;29352;48.708;9.290;2023-04-30T01:19:44;98131.50;;;2.92;83.87
43741;BME280;29352;48.708;9.290;2023-04-30T01:22:38;98123.78;;;2.98;84.86
43741;BME280;29352;48.708;9.290;2023-04-30T01:28:35;98114.19;;;2.73;85.74
43741;BME280;29352;48.708;9.290;2023-04-30T01:31:02;98116.66;;;2.74;85.53
43741;BME280;29352;48.708;9.290;2023-04-30T01:33:27;98113.38;;;2.80;85.35
43741;BME280;29352;48.708;9.290;2023-04-30T01:38:42;98114.22;;;2.89;84.63
43741;BME280;29352;48.708;9.290;2023-04-30T01:41:57;98112.88;;;2.77;84.67
43741;BME280;29352;48.708;9.290;2023-04-30T01:50:28;98111.41;;;2.91;84.10
43741;BME280;29352;48.708;9.290;2023-04-30T01:53:06;98126.25;;;2.83;83.71
43741;BME280;29352;48.708;9.290;2023-04-30T01:55:46;98120.66;;;2.87;84.09
43741;BME280;29352;48.708;9.290;2023-04-30T01:58:16;98120.66;;;2.87;83.54
43741;BME280;29352;48.708;9.290;2023-04-30T02:00:46;98116.00;;;2.80;83.75
43741;BME280;29352;48.708;9.290;2023-04-30T02:03:12;98115.38;;;2.78;83.92
43741;BME280;29352;48.708;9.290;2023-04-30T02:05:37;98117.50;;;2.75;83.60
43741;BME280;29352;48.708;9.290;2023-04-30T02:08:03;98113.72;;;2.94;82.65
43741;BME280;29352;48.708;9.290;2023-04-30T02:10:28;98116.31;;;2.77;83.81
43741;BME280;29352;48.708;9.290;2023-04-30T02:12:54;98121.59;;;2.77;83.35
43741;BME280;29352;48.708;9.290;2023-04-30T02:15:20;98119.53;;;3.22;81.33
43741;BME280;29352;48.708;9.290;2023-04-30T02:17:45;98120.25;;;3.24;80.86
43741;BME280;29352;48.708;9.290;2023-04-30T02:20:10;98119.50;;;2.89;82.38
43741;BME280;29352;48.708;9.290;2023-04-30T02:22:36;98124.09;;;2.95;82.00
43741;BME280;29352;48.708;9.290;2023-04-30T02:25:02;98124.09;;;2.95;81.88
43741;BME280;29352;48.708;9.290;2023-04-30T02:27:30;98119.38;;;3.15;81.03
43741;BME280;29352;48.708;9.290;2023-04-30T02:29:58;98114.88;;;2.91;82.12
43741;BME280;29352;48.708;9.290;2023-04-30T02:32:24;98110.22;;;2.77;83.24
43741;BME280;29352;48.708;9.290;2023-04-30T02:34:50;98113.41;;;2.97;82.19
43741;BME280;29352;48.708;9.290;2023-04-30T02:37:15;98116.00;;;2.72;82.61
43741;BME280;29352;48.708;9.290;2023-04-30T02:39:41;98111.69;;;2.63;83.42
43741;BME280;29352;48.708;9.290;2023-04-30T02:42:06;98116.38;;;3.02;82.34
43741;BME280;29352;48.708;9.290;2023-04-30T02:44:32;98109.13;;;3.12;81.53
43741;BME280;29352;48.708;9.290;2023-04-30T02:46:59;98117.72;;;3.06;82.17
43741;BME280;29352;48.708;9.290;2023-04-30T02:49:25;98116.72;;;3.15;81.69
43741;BME280;29352;48.708;9.290;2023-04-30T02:51:51;98122.97;;;2.98;81.88
43741;BME280;29352;48.708;9.290;2023-04-30T02:54:17;98118.00;;;2.95;82.30
43741;BME280;29352;48.708;9.290;2023-04-30T02:56:43;98116.72;;;3.07;81.81
43741;BME280;29352;48.708;9.290;2023-04-30T02:59:09;98115.28;;;2.54;83.66
43741;BME280;29352;48.708;9.290;2023-04-30T03:01:35;98111.97;;;2.52;83.68
43741;BME280;29352;48.708;9.290;2023-04-30T03:04:00;98118.56;;;2.56;83.62
43741;BME280;29352;48.708;9.290;2023-04-30T03:06:28;98122.59;;;2.84;82.88
43741;BME280;29352;48.708;9.290;2023-04-30T03:08:54;98121.41;;;3.38;80.58
43741;BME280;29352;48.708;9.290;2023-04-30T03:11:19;98123.03;;;2.64;83.05
43741;BME280;29352;48.708;9.290;2023-04-30T03:13:46;98118.63;;;2.72;82.79
43741;BME280;29352;48.708;9.290;2023-04-30T03:16:16;98124.97;;;2.96;82.44
43741;BME280;29352;48.708;9.290;2023-04-30T03:18:43;98124.38;;;2.68;82.33
43741;BME280;29352;48.708;9.290;2023-04-30T03:21:09;98124.34;;;2.59;83.22
43741;BME280;29352;48.708;9.290;2023-04-30T03:23:34;98119.69;;;2.45;83.96
43741;BME280;29352;48.708;9.290;2023-04-30T03:25:59;98119.97;;;2.76;82.28
43741;BME280;29352;48.708;9.290;2023-04-30T03:28:25;98124.59;;;2.82;82.26
43741;BME280;29352;48.708;9.290;2023-04-30T03:30:51;98116.66;;;2.74;83.02
43741;BME280;29352;48.708;9.290;2023-04-30T03:33:16;98112.22;;;2.32;84.15
43741;BME280;29352;48.708;9.290;2023-04-30T03:35:42;98118.06;;;2.44;84.16
43741;BME280;29352;48.708;9.290;2023-04-30T03:38:07;98114.41;;;2.37;84.75
43741;BME280;29352;48.708;9.290;2023-04-30T03:40:33;98112.31;;;2.49;84.19
43741;BME280;29352;48.708;9.290;2023-04-30T03:42:59;98112.41;;;2.39;84.24
43741;BME280;29352;48.708;9.290;2023-04-30T03:45:24;98113.50;;;2.63;84.03
43741;BME280;29352;48.708;9.290;2023-04-30T03:47:50;98110.16;;;2.52;83.64
43741;BME280;29352;48.708;9.290;2023-04-30T03:50:17;98108.63;;;2.33;84.33
43741;BME280;29352;48.708;9.290;2023-04-30T03:52:43;98113.38;;;2.30;85.05
43741;BME280;29352;48.708;9.290;2023-04-30T03:55:10;98106.25;;;2.22;84.87
43741;BME280;29352;48.708;9.290;2023-04-30T03:57:36;98104.53;;;2.05;85.46
43741;BME280;29352;48.708;9.290;2023-04-30T04:00:05;98108.56;;;2.25;84.94
43741;BME280;29352;48.708;9.290;2023-04-30T04:02:35;98104.63;;;2.29;85.03
43741;BME280;29352;48.708;9.290;2023-04-30T04:05:02;98105.41;;;2.13;85.79
43741;BME280;29352;48.708;9.290;2023-04-30T04:07:28;98113.91;;;2.42;84.79
43741;BME280;29352;48.708;9.290;2023-04-30T04:09:54;98109.78;;;2.05;85.46
43741;BME280;29352;48.708;9.290;2023-04-30T04:12:20;98115.19;;;2.29;85.02
43741;BME280;29352;48.708;9.290;2023-04-30T04:14:45;98121.03;;;2.15;85.24
43741;BME280;29352;48.708;9.290;2023-04-30T04:17:11;98117.81;;;2.29;85.13
43741;BME280;29352;48.708;9.290;2023-04-30T04:19:36;98120.50;;;2.37;84.39
43741;BME280;29352;48.708;9.290;2023-04-30T04:22:02;98122.00;;;2.06;85.17
43741;BME280;29352;48.708;9.290;2023-04-30T04:24:28;98121.78;;;1.99;85.70
43741;BME280;29352;48.708;9.290;2023-04-30T04:26:54;98121.50;;;2.10;85.65
43741;BME280;29352;48.708;9.290;2023-04-30T04:29:20;98124.19;;;2.19;84.94
43741;BME280;29352;48.708;9.290;2023-04-30T04:31:45;98125.25;;;2.00;85.64
43741;BME280;29352;48.708;9.290;2023-04-30T04:34:13;98124.47;;;2.07;85.18
43741;BME280;29352;48.708;9.290;2023-04-30T04:36:38;98121.69;;;2.09;85.48
43741;BME280;29352;48.708;9.290;2023-04-30T04:39:04;98125.88;;;2.70;83.69
43741;BME280;29352;48.708;9.290;2023-04-30T04:41:31;98125.13;;;2.44;83.48
43741;BME280;29352;48.708;9.290;2023-04-30T04:44:01;98120.72;;;2.18;85.02
43741;BME280;29352;48.708;9.290;2023-04-30T04:46:28;98130.94;;;2.64;83.79
43741;BME280;29352;48.708;9.290;2023-04-30T04:48:55;98132.03;;;2.45;83.70
43741;BME280;29352;48.708;9.290;2023-04-30T04:51:21;98136.28;;;2.80;82.64
43741;BME280;29352;48.708;9.290;2023-04-30T04:53:47;98133.41;;;2.57;82.63
43741;BME280;29352;48.708;9.290;2023-04-30T04:56:13;98138.41;;;2.84;81.99
43741;BME280;29352;48.708;9.290;2023-04-30T04:58:38;98129.41;;;2.45;82.97
43741;BME280;29352;48.708;9.290;2023-04-30T05:01:05;98131.44;;;3.26;80.34
43741;BME280;29352;48.708;9.290;2023-04-30T05:03:31;98132.59;;;3.72;79.02
43741;BME280;29352;48.708;9.290;2023-04-30T05:06:01;98130.94;;;3.79;77.78
43741;BME280;29352;48.708;9.290;2023-04-30T05:08:27;98131.91;;;3.78;77.83
43741;BME280;29352;48.708;9.290;2023-04-30T05:10:53;98128.81;;;3.34;79.34
43741;BME280;29352;48.708;9.290;2023-04-30T05:13:18;98129.31;;;3.46;79.28
43741;BME280;29352;48.708;9.290;2023-04-30T05:15:44;98134.06;;;3.67;78.07
43741;BME280;29352;48.708;9.290;2023-04-30T05:18:09;98130.63;;;3.34;78.97
43741;BME280;29352;48.708;9.290;2023-04-30T05:20:35;98141.16;;;3.74;77.73
43741;BME280;29352;48.708;9.290;2023-04-30T05:23:00;98134.75;;;3.52;78.04
43741;BME280;29352;48.708;9.290;2023-04-30T05:25:26;98130.91;;;3.96;76.54
43741;BME280;29352;48.708;9.290;2023-04-30T05:27:51;98132.97;;;4.25;76.53
43741;BME280;29352;48.708;9.290;2023-04-30T05:30:17;98133.34;;;4.61;74.89
43741;BME280;29352;48.708;9.290;2023-04-30T05:32:42;98126.44;;;4.04;76.99
43741;BME280;29352;48.708;9.290;2023-04-30T05:35:10;98127.50;;;4.26;75.40
43741;BME280;29352;48.708;9.290;2023-04-30T05:37:36;98125.47;;;4.45;75.51
43741;BME280;29352;48.708;9.290;2023-04-30T05:40:01;98125.38;;;5.01;74.41
43741;BME280;29352;48.708;9.290;2023-04-30T05:42:27;98132.78;;;5.05;74.04
43741;BME280;29352;48.708;9.290;2023-04-30T05:44:52;98126.81;;;4.80;74.43
43741;BME280;29352;48.708;9.290;2023-04-30T05:47:18;98121.31;;;5.13;72.71
43741;BME280;29352;48.708;9.290;2023-04-30T05:49:43;98123.03;;;4.83;73.47
43741;BME280;29352;48.708;9.290;2023-04-30T05:52:08;98124.19;;;5.72;72.00
43741;BME280;29352;48.708;9.290;2023-04-30T05:54:34;98122.38;;;6.61;70.03
43741;BME280;29352;48.708;9.290;2023-04-30T05:57:00;98122.94;;;7.08;67.92
43741;BME280;29352;48.708;9.290;2023-04-30T05:59:26;98121.66;;;7.68;66.64
43741;BME280;29352;48.708;9.290;2023-04-30T06:01:52;98124.13;;;7.48;66.70
43741;BME280;29352;48.708;9.290;2023-04-30T06:04:17;98128.00;;;7.24;67.27
43741;BME280;29352;48.708;9.290;2023-04-30T06:06:42;98131.34;;;7.54;65.25
43741;BME280;29352;48.708;9.290;2023-04-30T06:09:08;98122.91;;;7.72;64.87
43741;BME280;29352;48.708;9.290;2023-04-30T06:11:35;98129.44;;;6.54;68.03
43741;BME280;29352;48.708;9.290;2023-04-30T06:14:04;98134.47;;;6.49;68.50
43741;BME280;29352;48.708;9.290;2023-04-30T06:16:30;98124.09;;;7.91;64.32
43741;BME280;29352;48.708;9.290;2023-04-30T06:18:55;98128.44;;;7.28;65.01
43741;BME280;29352;48.708;9.290;2023-04-30T06:21:21;98131.94;;;7.99;64.59
43741;BME280;29352;48.708;9.290;2023-04-30T06:23:50;98127.97;;;7.67;64.99
43741;BME280;29352;48.708;9.290;2023-04-30T06:26:17;98125.94;;;9.21;61.91
43741;BME280;29352;48.708;9.290;2023-04-30T06:28:43;98119.75;;;9.08;60.91
43741;BME280;29352;48.708;9.290;2023-04-30T06:31:09;98121.41;;;9.02;61.54
43741;BME280;29352;48.708;9.290;2023-04-30T06:33:34;98125.44;;;8.43;63.51
43741;BME280;29352;48.708;9.290;2023-04-30T06:36:00;98119.34;;;9.11;61.28
43741;BME280;29352;48.708;9.290;2023-04-30T06:38:25;98121.94;;;8.84;61.67
43741;BME280;29352;48.708;9.290;2023-04-30T06:40:51;98137.78;;;7.67;63.98
43741;BME280;29352;48.708;9.290;2023-04-30T06:43:16;98136.56;;;8.19;62.30
43741;BME280;29352;48.708;9.290;2023-04-30T06:45:42;98135.63;;;7.55;63.93
43741;BME280;29352;48.708;9.290;2023-04-30T06:48:07;98127.09;;;8.10;63.48
43741;BME280;29352;48.708;9.290;2023-04-30T06:50:33;98137.81;;;7.73;64.07
43741;BME280;29352;48.708;9.290;2023-04-30T06:52:58;98140.50;;;7.95;64.00
43741;BME280;29352;48.708;9.290;2023-04-30T06:55:24;98141.84;;;7.41;64.95
43741;BME280;29352;48.708;9.290;2023-04-30T06:57:49;98129.84;;;8.71;61.81
43741;BME280;29352;48.708;9.290;2023-04-30T07:00:15;98130.38;;;8.46;61.72
43741;BME280;29352;48.708;9.290;2023-04-30T07:02:40;98130.16;;;8.48;62.84
43741;BME280;29352;48.708;9.290;2023-04-30T07:05:06;98118.34;;;9.05;60.46
43741;BME280;29352;48.708;9.290;2023-04-30T07:07:33;98120.69;;;8.80;61.72
43741;BME280;29352;48.708;9.290;2023-04-30T07:09:58;98120.53;;;8.88;60.15
43741;BME280;29352;48.708;9.290;2023-04-30T07:12:24;98115.22;;;9.01;60.76
43741;BME280;29352;48.708;9.290;2023-04-30T07:14:50;98116.22;;;8.87;59.85
43741;BME280;29352;48.708;9.290;2023-04-30T07:17:15;98103.19;;;10.12;58.12
43741;BME280;29352;48.708;9.290;2023-04-30T07:19:41;98116.66;;;10.50;57.94
43741;BME280;29352;48.708;9.290;2023-04-30T07:22:06;98111.50;;;10.49;58.53
43741;BME280;29352;48.708;9.290;2023-04-30T07:24:31;98111.81;;;11.99;54.91
43741;BME280;29352;48.708;9.290;2023-04-30T07:26:58;98111.31;;;12.08;53.75
43741;BME280;29352;48.708;9.290;2023-04-30T07:29:27;98109.38;;;11.72;55.59
43741;BME280;29352;48.708;9.290;2023-04-30T07:31:54;98107.97;;;11.70;54.83
43741;BME280;29352;48.708;9.290;2023-04-30T07:34:20;98113.13;;;11.90;54.02
43741;BME280;29352;48.708;9.290;2023-04-30T07:36:47;98114.91;;;11.96;54.11
43741;BME280;29352;48.708;9.290;2023-04-30T07:39:13;98101.53;;;11.96;53.94
43741;BME280;29352;48.708;9.290;2023-04-30T07:41:38;98094.69;;;12.92;52.94
43741;BME280;29352;48.708;9.290;2023-04-30T07:44:04;98099.94;;;12.87;53.19
43741;BME280;29352;48.708;9.290;2023-04-30T07:46:30;98093.41;;;14.13;51.88
43741;BME280;29352;48.708;9.290;2023-04-30T07:48:55;98094.31;;;14.31;49.94
43741;BME280;29352;48.708;9.290;2023-04-30T07:51:21;98092.31;;;14.90;49.35
43741;BME280;29352;48.708;9.290;2023-04-30T07:53:46;98091.38;;;14.56;47.50
43741;BME280;29352;48.708;9.290;2023-04-30T07:56:12;98107.94;;;12.57;50.70
43741;BME280;29352;48.708;9.290;2023-04-30T07:58:37;98098.38;;;12.97;50.34
43741;BME280;29352;48.708;9.290;2023-04-30T08:01:02;98091.78;;;12.26;51.96
43741;BME280;29352;48.708;9.290;2023-04-30T08:03:28;98108.53;;;11.97;52.74
43741;BME280;29352;48.708;9.290;2023-04-30T08:05:53;98093.69;;;12.74;51.04
43741;BME280;29352;48.708;9.290;2023-04-30T08:08:19;98094.09;;;11.79;54.01
43741;BME280;29352;48.708;9.290;2023-04-30T08:10:44;98108.41;;;11.67;52.52
43741;BME280;29352;48.708;9.290;2023-04-30T08:13:10;98097.06;;;11.08;56.31
43741;BME280;29352;48.708;9.290;2023-04-30T08:15:35;98095.00;;;11.92;53.03
43741;BME280;29352;48.708;9.290;2023-04-30T08:18:02;98088.25;;;11.39;53.05
43741;BME280;29352;48.708;9.290;2023-04-30T08:20:28;98107.41;;;11.29;52.88
43741;BME280;29352;48.708;9.290;2023-04-30T08:22:53;98108.50;;;10.12;53.92
43741;BME280;29352;48.708;9.290;2023-04-30T08:25:19;98107.94;;;10.03;54.67
43741;BME280;29352;48.708;9.290;2023-04-30T08:27:44;98105.59;;;9.00;57.24
43741;BME280;29352;48.708;9.290;2023-04-30T08:30:11;98096.81;;;9.00;57.67
43741;BME280;29352;48.708;9.290;2023-04-30T08:32:36;98098.03;;;9.04;57.96
43741;BME280;29352;48.708;9.290;2023-04-30T08:35:06;98104.25;;;9.44;56.81
43741;BME280;29352;48.708;9.290;2023-04-30T08:37:33;98104.25;;;9.44;56.41
43741;BME280;29352;48.708;9.290;2023-04-30T08:39:59;98108.53;;;8.58;57.90
43741;BME280;29352;48.708;9.290;2023-04-30T08:42:30;98110.06;;;8.80;57.33
43741;BME280;29352;48.708;9.290;2023-04-30T08:44:59;98097.25;;;9.17;56.89
43741;BME280;29352;48.708;9.290;2023-04-30T08:47:27;98093.94;;;8.95;57.68
43741;BME280;29352;48.708;9.290;2023-04-30T08:49:53;98093.16;;;9.21;57.48
43741;BME280;29352;48.708;9.290;2023-04-30T08:52:20;98086.13;;;8.93;57.23
43741;BME280;29352;48.708;9.290;2023-04-30T08:54:47;98095.38;;;9.11;56.59
43741;BME280;29352;48.708;9.290;2023-04-30T08:57:15;98097.19;;;8.97;57.90
43741;BME280;29352;48.708;9.290;2023-04-30T08:59:44;98094.41;;;9.38;55.70
43741;BME280;29352;48.708;9.290;2023-04-30T09:02:13;98105.47;;;9.35;56.41
43741;BME280;29352;48.708;9.290;2023-04-30T09:04:38;98104.84;;;9.20;57.17
43741;BME280;29352;48.708;9.290;2023-04-30T09:07:04;98093.22;;;9.67;54.50
43741;BME280;29352;48.708;9.290;2023-04-30T09:09:37;98103.75;;;8.94;55.93
43741;BME280;29352;48.708;9.290;2023-04-30T09:12:12;98104.00;;;9.13;55.22
43741;BME280;29352;48.708;9.290;2023-04-30T09:14:40;98102.47;;;8.29;56.51
43741;BME280;29352;48.708;9.290;2023-04-30T09:17:07;98097.22;;;8.08;57.21
43741;BME280;29352;48.708;9.290;2023-04-30T09:19:36;98112.47;;;7.71;59.20
43741;BME280;29352;48.708;9.290;2023-04-30T09:22:22;98103.97;;;8.10;58.38
43741;BME280;29352;48.708;9.290;2023-04-30T09:24:49;98105.50;;;7.91;59.14
43741;BME280;29352;48.708;9.290;2023-04-30T09:27:18;98101.56;;;7.87;58.23
43741;BME280;29352;48.708;9.290;2023-04-30T09:29:47;98114.56;;;7.75;58.38
43741;BME280;29352;48.708;9.290;2023-04-30T09:32:13;98105.19;;;7.79;57.58
43741;BME280;29352;48.708;9.290;2023-04-30T09:34:39;98114.59;;;7.32;58.22
43741;BME280;29352;48.708;9.290;2023-04-30T09:37:05;98101.25;;;7.47;59.66
43741;BME280;29352;48.708;9.290;2023-04-30T09:39:32;98100.59;;;7.45;59.58
43741;BME280;29352;48.708;9.290;2023-04-30T09:42:09;98111.00;;;7.90;58.42
43741;BME280;29352;48.708;9.290;2023-04-30T09:44:38;98102.84;;;7.91;58.55
43741;BME280;29352;48.708;9.290;2023-04-30T09:47:10;98110.56;;;7.86;58.70
43741;BME280;29352;48.708;9.290;2023-04-30T09:49:41;98092.34;;;8.59;57.24
43741;BME280;29352;48.708;9.290;2023-04-30T09:52:09;98103.84;;;7.90;59.00
43741;BME280;29352;48.708;9.290;2023-04-30T09:54:36;98089.00;;;8.37;57.86
43741;BME280;29352;48.708;9.290;2023-04-30T09:57:02;98102.31;;;8.92;56.50
43741;BME280;29352;48.708;9.290;2023-04-30T09:59:33;98099.69;;;7.53;59.61
43741;BME280;29352;48.708;9.290;2023-04-30T10:02:07;98093.75;;;8.48;54.73
43741;BME280;29352;48.708;9.290;2023-04-30T10:04:38;98091.84;;;7.94;56.67
43741;BME280;29352;48.708;9.290;2023-04-30T10:07:16;98091.97;;;8.69;56.24
43741;BME280;29352;48.708;9.290;2023-04-30T10:10:07;98088.16;;;8.78;56.00
43741;BME280;29352;48.708;9.290;2023-04-30T10:12:55;98091.72;;;9.05;56.25
43741;BME280;29352;48.708;9.290;2023-04-30T10:15:30;98094.63;;;8.62;54.70
43741;BME280;29352;48.708;9.290;2023-04-30T10:18:18;98082.25;;;8.89;54.79
43741;BME280;29352;48.708;9.290;2023-04-30T10:20:49;98092.88;;;8.89;53.82
43741;BME280;29352;48.708;9.290;2023-04-30T10:23:18;98091.53;;;9.20;54.13
43741;BME280;29352;48.708;9.290;2023-04-30T10:25:46;98090.28;;;9.09;54.81
43741;BME280;29352;48.708;9.290;2023-04-30T10:28:12;98082.84;;;8.85;55.14
43741;BME280;29352;48.708;9.290;2023-04-30T10:30:40;98086.97;;;9.00;53.52
43741;BME280;29352;48.708;9.290;2023-04-30T10:36:46;98076.78;;;9.24;52.88
43741;BME280;29352;48.708;9.290;2023-04-30T10:39:18;98078.16;;;8.45;53.57
43741;BME280;29352;48.708;9.290;2023-04-30T10:41:47;98087.28;;;8.71;53.75
43741;BME280;29352;48.708;9.290;2023-04-30T10:44:14;98088.56;;;8.82;53.84
43741;BME280;29352;48.708;9.290;2023-04-30T10:46:41;98078.38;;;8.44;54.83
43741;BME280;29352;48.708;9.290;2023-04-30T10:49:07;98084.97;;;8.54;54.34
43741;BME280;29352;48.708;9.290;2023-04-30T10:51:49;98088.75;;;7.20;58.04
43741;BME280;29352;48.708;9.290;2023-04-30T10:54:31;98080.25;;;8.50;53.97
43741;BME280;29352;48.708;9.290;2023-04-30T10:57:14;98085.22;;;8.25;56.48
43741;BME280;29352;48.708;9.290;2023-04-30T11:00:16;98072.13;;;8.65;53.98
43741;BME280;29352;48.708;9.290;2023-04-30T11:02:46;98063.41;;;8.97;53.83
43741;BME280;29352;48.708;9.290;2023-04-30T11:05:17;98063.16;;;7.90;55.59
43741;BME280;29352;48.708;9.290;2023-04-30T11:10:13;98062.75;;;7.86;55.42
43741;BME280;29352;48.708;9.290;2023-04-30T11:12:50;98069.25;;;7.83;57.74
43741;BME280;29352;48.708;9.290;2023-04-30T11:15:19;98061.50;;;7.82;56.89
43741;BME280;29352;48.708;9.290;2023-04-30T11:17:47;98057.97;;;8.58;54.66
43741;BME280;29352;48.708;9.290;2023-04-30T11:20:18;98075.00;;;8.15;54.76
43741;BME280;29352;48.708;9.290;2023-04-30T11:22:45;98058.72;;;8.38;54.24
43741;BME280;29352;48.708;9.290;2023-04-30T11:25:12;98062.00;;;9.15;54.21
43741;BME280;29352;48.708;9.290;2023-04-30T11:27:41;98055.06;;;9.47;53.55
43741;BME280;29352;48.708;9.290;2023-04-30T11:30:15;98058.69;;;8.86;53.49
43741;BME280;29352;48.708;9.290;2023-04-30T11:32:45;98064.91;;;9.20;53.55
43741;BME280;29352;48.708;9.290;2023-04-30T11:35:14;98045.63;;;9.31;52.56
43741;BME280;29352;48.708;9.290;2023-04-30T11:37:43;98049.94;;;9.39;52.38
43741;BME280;29352;48.708;9.290;2023-04-30T11:40:11;98051.59;;;9.33;52.73
43741;BME280;29352;48.708;9.290;2023-04-30T11:42:41;98058.34;;;9.42;51.94
43741;BME280;29352;48.708;9.290;2023-04-30T11:45:14;98046.63;;;9.97;51.55
43741;BME280;29352;48.708;9.290;2023-04-30T11:47:49;98050.56;;;9.41;53.48
43741;BME280;29352;48.708;9.290;2023-04-30T11:50:20;98045.63;;;9.44;52.35
43741;BME280;29352;48.708;9.290;2023-04-30T11:52:54;98035.41;;;9.41;52.25
43741;BME280;29352;48.708;9.290;2023-04-30T11:55:23;98032.94;;;9.40;51.31
43741;BME280;29352;48.708;9.290;2023-04-30T11:57:52;98028.63;;;9.72;52.60
43741;BME280;29352;48.708;9.290;2023-04-30T12:00:24;98025.00;;;10.18;52.59
43741;BME280;29352;48.708;9.290;2023-04-30T12:02:56;98022.84;;;10.47;51.94
43741;BME280;29352;48.708;9.290;2023-04-30T12:05:25;98022.03;;;10.53;50.68
43741;BME280;29352;48.708;9.290;2023-04-30T12:08:03;98021.19;;;10.52;50.25
43741;BME280;29352;48.708;9.290;2023-04-30T12:10:32;98023.22;;;10.57;51.18
43741;BME280;29352;48.708;9.290;2023-04-30T12:12:58;98020.72;;;10.17;51.00
43741;BME280;29352;48.708;9.290;2023-04-30T12:15:25;98016.66;;;9.94;51.45
43741;BME280;29352;48.708;9.290;2023-04-30T12:17:53;98015.69;;;9.82;52.43
43741;BME280;29352;48.708;9.290;2023-04-30T12:20:21;98016.06;;;9.99;51.62
43741;BME280;29352;48.708;9.290;2023-04-30T12:22:49;98003.53;;;10.58;50.85
43741;BME280;29352;48.708;9.290;2023-04-30T12:25:18;98003.06;;;10.99;50.68
43741;BME280;29352;48.708;9.290;2023-04-30T12:27:46;98010.34;;;9.95;51.33
43741;BME280;29352;48.708;9.290;2023-04-30T12:30:17;98022.03;;;10.39;50.09
43741;BME280;29352;48.708;9.290;2023-04-30T12:32:49;98008.75;;;9.28;51.96
43741;BME280;29352;48.708;9.290;2023-04-30T12:35:20;98020.81;;;10.42;53.25
43741;BME280;29352;48.708;9.290;2023-04-30T12:37:49;98028.88;;;10.22;52.54
43741;BME280;29352;48.708;9.290;2023-04-30T12:40:18;98025.72;;;10.52;52.86
43741;BME280;29352;48.708;9.290;2023-04-30T12:42:44;98024.50;;;10.48;51.13
43741;BME280;29352;48.708;9.290;2023-04-30T12:45:12;98022.22;;;9.93;52.05
43741;BME280;29352;48.708;9.290;2023-04-30T12:47:58;98014.81;;;10.02;51.46
43741;BME280;29352;48.708;9.290;2023-04-30T12:50:23;98013.28;;;10.26;51.69
43741;BME280;29352;48.708;9.290;2023-04-30T12:52:49;98011.00;;;10.74;49.55
43741;BME280;29352;48.708;9.290;2023-04-30T12:55:19;97999.44;;;10.04;51.32
43741;BME280;29352;48.708;9.290;2023-04-30T12:58:12;98000.34;;;10.29;52.07
43741;BME280;29352;48.708;9.290;2023-04-30T13:00:47;97986.94;;;10.42;50.99
43741;BME280;29352;48.708;9.290;2023-04-30T13:03:17;97996.97;;;11.17;49.60
43741;BME280;29352;48.708;9.290;2023-04-30T13:05:47;97979.91;;;10.16;50.35
43741;BME280;29352;48.708;9.290;2023-04-30T13:08:15;97984.06;;;9.99;52.56
43741;BME280;29352;48.708;9.290;2023-04-30T13:10:41;97987.56;;;10.45;51.43
43741;BME280;29352;48.708;9.290;2023-04-30T13:13:07;97982.31;;;10.25;51.21
43741;BME280;29352;48.708;9.290;2023-04-30T13:15:32;97985.47;;;10.47;51.54
43741;BME280;29352;48.708;9.290;2023-04-30T13:17:57;97974.97;;;10.20;51.38
43741;BME280;29352;48.708;9.290;2023-04-30T13:20:23;97971.97;;;9.97;51.61
43741;BME280;29352;48.708;9.290;2023-04-30T13:22:52;97965.41;;;10.44;52.21
43741;BME280;29352;48.708;9.290;2023-04-30T13:25:18;97972.25;;;9.62;51.48
43741;BME280;29352;48.708;9.290;2023-04-30T13:27:44;97969.94;;;9.92;51.52
43741;BME280;29352;48.708;9.290;2023-04-30T13:30:10;97963.63;;;9.60;52.03
43741;BME280;29352;48.708;9.290;2023-04-30T13:32:36;97958.13;;;9.68;52.15
43741;BME280;29352;48.708;9.290;2023-04-30T13:35:02;97963.47;;;10.19;50.83
43741;BME280;29352;48.708;9.290;2023-04-30T13:37:28;97960.59;;;10.21;50.39